createdAt,value
2018-02-07T00:00:16.252Z,58.3
2018-02-07T00:15:16.261Z,48.6
2018-02-07T00:30:16.240Z,57
2018-02-07T00:50:16.106Z,60.3
2018-02-07T01:05:16.128Z,55.3
2018-02-07T01:35:16.273Z,74.3
2018-02-07T01:55:16.291Z,60.2
2018-02-07T02:10:16.288Z,61.8
2018-02-07T02:25:16.303Z,45.6
2018-02-07T02:40:16.342Z,56.7
2018-02-07T03:00:18.898Z,58.3
2018-02-07T03:15:19.100Z,54.4
2018-02-07T03:30:22.134Z,53.7
2018-02-07T03:50:19.035Z,47.2
2018-02-07T04:05:19.164Z,54.2
2018-02-07T04:55:19.142Z,41.3
2018-02-07T05:10:22.302Z,41.7
2018-02-07T05:25:19.536Z,54.1
2018-02-07T05:45:19.161Z,53.3
2018-02-07T06:00:19.181Z,40.6
2018-02-07T06:15:19.269Z,48.8
2018-02-07T06:30:19.153Z,62.3
2018-02-07T06:50:19.331Z,60.5
2018-02-07T07:05:19.326Z,57.9
2018-02-07T07:20:19.298Z,59
2018-02-07T07:40:19.383Z,59.2
2018-02-07T07:55:27.100Z,74.1
2018-02-07T08:10:22.237Z,71.6
2018-02-07T08:25:22.101Z,81.1
2018-02-07T08:45:22.153Z,89.2
2018-02-07T09:00:22.017Z,80.2
2018-02-07T09:15:22.165Z,78.6
2018-02-07T09:35:22.389Z,90.9
2018-02-07T09:50:22.315Z,53
2018-02-07T10:05:22.308Z,58.5
2018-02-07T10:20:22.380Z,61.4
2018-02-07T10:40:22.407Z,48.7
2018-02-07T10:55:23.335Z,49.1
2018-02-07T11:10:22.302Z,58.1
2018-02-07T11:30:22.343Z,53.8
2018-02-07T11:45:22.341Z,55.6
2018-02-07T12:00:22.491Z,47.7
2018-02-07T12:15:22.295Z,44.6
2018-02-07T12:35:22.341Z,47.3
2018-02-07T12:50:25.589Z,49.2
2018-02-07T13:05:25.564Z,43.8
2018-02-07T13:20:25.536Z,33.9
2018-02-07T13:55:25.550Z,30.8
2018-02-07T14:10:25.589Z,33.4
2018-02-07T14:30:25.606Z,32.6
2018-02-07T14:45:25.612Z,36.5
2018-02-07T15:00:25.576Z,28.5
2018-02-07T15:15:25.589Z,30
2018-02-07T15:35:25.508Z,26.4
2018-02-07T15:50:25.499Z,30
2018-02-07T16:05:25.507Z,37.4
2018-02-07T16:25:25.606Z,34.5
2018-02-07T16:40:25.634Z,38.2
2018-02-07T17:10:25.661Z,39.4
2018-02-07T17:30:27.193Z,40.5
2018-02-07T17:45:27.235Z,40.9
2018-02-07T18:00:27.175Z,42.4
2018-02-07T18:20:27.297Z,45.8
2018-02-07T18:35:27.480Z,42.5
2018-02-07T18:50:27.905Z,43.6
2018-02-07T19:05:27.275Z,66.1
2018-02-07T19:25:27.301Z,56.8
2018-02-07T19:40:27.520Z,45.4
2018-02-07T19:55:28.206Z,59.4
2018-02-07T20:15:27.312Z,59
2018-02-07T20:30:27.313Z,57.8
2018-02-07T20:45:27.746Z,56.5
2018-02-07T21:20:28.386Z,60.7
2018-02-07T21:35:28.388Z,74.5
2018-02-07T21:50:28.350Z,75.1
2018-02-07T22:10:28.435Z,57.3
2018-02-07T22:25:36.442Z,60.1
2018-02-07T22:40:31.091Z,81.9
2018-02-07T22:55:31.308Z,69.6
2018-02-07T23:30:31.489Z,65.1
2018-02-07T23:45:31.529Z,71.4
